Aérodrome :
LOGIN :

S'inscrire | Disclaimer

   EN    FR    IT 

 










Légende :    VFR   VFR Marginal   IFR   IFR Intensif   IFR Très Intensif
Visi : 
Plafond : 
>= 8 km
>= 3000ft
5 à 8 km
1000 à 3000 ft
1500m à 5 km
500 à 1000 ft
800 à 1500m
200 à 500 ft
< 800m
< 200 ft
Symboles :   Orages  Brouillard  Fortes neiges  Fortes précipitations  Vent > 20 kt
SIGMETs :   Divers  Orages  Givrage  Turbulence  Onde Orograph.  Cendres Volcan.







- Altitude de l'aérodrome : 3 ft
- Code IATA : DHR


EHKD - Den Helder De Kooy

DERNIER METAR :
  • 272255Z AUTO 14006KT 110V180 9999 OVC083 20/16 Q1017 BLU

METARs EXPIRÉS :
  • 272225Z AUTO 11006KT 080V140 9999 SCT083 OVC320 19/16 Q1017 BLU
  • 272155Z AUTO 10007KT 060V140 9999 BKN084 20/16 Q1017 BLU
  • 272125Z AUTO 06006KT 9999 NCD 20/17 Q1016 BLU
  • 272055Z AUTO 06006KT 9999 BKN280 20/17 Q1016 BLU
  • 272025Z AUTO 07007KT 050V110 9999 SCT100 OVC230 21/17 Q1016 BLU

TAF TAF EHKD
Valide du 27 à 17h jusqu'au 28 à 05h UTC


271614Z 2717/2805 03012KT CAVOK
BECMG 2716/2719 06005KT
Pas de NOTAMs connus pour ce terrain.



MET'MAP, la Météo Aéronautique d'un coup d'oeil ! - Copyright ORBIFLY Décembre 2007 - Disclaimer

ORBIFLY MET'MAP TEAM :

Programmation & Développement : Alexandra Zaïnal
Conception & Développement : Baudouin d'Aumeries
Co-Programmation & Développement : Marc-Olivier Méhu
Soutien technique & logistique : Manuel Goepfert

Contact : metmap@orbifly.com




SOURCES & CREDITS :

   NOAA